createdAt,value
2022-09-03T00:04:11.749Z,1002.57
2022-09-03T00:09:15.859Z,1002.52
2022-09-03T00:14:20.054Z,1002.49
2022-09-03T00:19:24.197Z,1002.52
2022-09-03T00:24:28.366Z,1002.50
2022-09-03T00:29:32.513Z,1002.42
2022-09-03T00:34:36.706Z,1002.38
2022-09-03T00:39:40.920Z,1002.44
2022-09-03T00:44:44.999Z,1002.34
2022-09-03T00:49:49.187Z,1002.47
2022-09-03T00:54:53.317Z,1002.40
2022-09-03T00:59:57.469Z,1002.46
2022-09-03T01:05:01.670Z,1002.42
2022-09-03T01:10:05.809Z,1002.39
2022-09-03T01:15:08.096Z,1002.47
2022-09-03T01:20:12.221Z,1002.49
2022-09-03T01:25:14.507Z,1002.41
2022-09-03T01:30:18.701Z,1002.43
2022-09-03T01:35:22.811Z,1002.35
2022-09-03T01:40:26.997Z,1002.41
2022-09-03T01:45:31.141Z,1002.38
2022-09-03T01:50:35.325Z,1002.32
2022-09-03T01:55:39.447Z,1002.37
2022-09-03T02:00:43.632Z,1002.33
2022-09-03T02:05:47.774Z,1002.34
2022-09-03T02:10:51.921Z,1002.33
2022-09-03T02:15:56.193Z,1002.35
2022-09-03T02:21:00.289Z,1002.39
2022-09-03T02:26:04.420Z,1002.37
2022-09-03T02:31:08.631Z,1002.27
2022-09-03T02:36:12.729Z,1002.38
2022-09-03T02:41:16.927Z,1002.34
2022-09-03T02:46:21.156Z,1002.26
2022-09-03T02:51:25.230Z,1002.32
2022-09-03T02:56:27.499Z,1002.36
2022-09-03T03:01:31.768Z,1002.31
2022-09-03T03:06:35.812Z,1002.25
2022-09-03T03:11:38.063Z,1002.26
2022-09-03T03:16:42.313Z,1002.25
2022-09-03T03:21:44.508Z,1002.18
2022-09-03T03:26:48.667Z,1002.19
2022-09-03T03:31:52.863Z,1002.14
2022-09-03T03:36:56.978Z,1002.14
2022-09-03T03:42:01.126Z,1002.12
2022-09-03T03:47:05.326Z,1002.14
2022-09-03T03:52:09.492Z,1002.10
2022-09-03T03:57:13.650Z,1002.15
2022-09-03T04:02:17.909Z,1002.03
2022-09-03T04:07:21.996Z,1002.03
2022-09-03T04:12:26.140Z,1001.94
2022-09-03T04:17:30.312Z,1001.96
2022-09-03T04:22:34.488Z,1002.02
2022-09-03T04:27:38.607Z,1001.91
2022-09-03T04:32:42.763Z,1002.01
2022-09-03T04:37:46.910Z,1001.92
2022-09-03T04:42:51.089Z,1001.89
2022-09-03T04:47:55.242Z,1001.91
2022-09-03T04:52:59.398Z,1001.97
2022-09-03T04:58:03.566Z,1001.90
2022-09-03T05:03:07.707Z,1001.94
2022-09-03T05:08:10.024Z,1002.05
2022-09-03T05:13:14.168Z,1002.00
2022-09-03T05:18:18.374Z,1001.89
2022-09-03T05:23:22.516Z,1001.90
2022-09-03T05:28:26.660Z,1002.00
2022-09-03T05:33:30.817Z,1001.99
2022-09-03T05:38:35.034Z,1002.01
2022-09-03T05:43:39.145Z,1001.94
2022-09-03T05:48:43.271Z,1002.01
2022-09-03T05:53:47.462Z,1001.81
2022-09-03T05:58:51.607Z,1001.94
2022-09-03T06:03:55.775Z,1001.94
2022-09-03T06:08:59.943Z,1001.94
2022-09-03T06:14:04.092Z,1001.93
2022-09-03T06:19:08.261Z,1001.93
2022-09-03T06:24:12.415Z,1001.94
2022-09-03T06:29:16.564Z,1001.89
2022-09-03T06:34:20.749Z,1001.90
2022-09-03T06:39:24.969Z,1001.94
2022-09-03T06:44:29.050Z,1001.96
2022-09-03T06:49:33.200Z,1001.86
2022-09-03T06:54:35.449Z,1001.96
2022-09-03T06:59:39.669Z,1001.87
2022-09-03T07:04:43.796Z,1001.87
2022-09-03T07:09:48.567Z,1001.88
2022-09-03T07:14:52.144Z,1001.91
2022-09-03T07:19:56.296Z,1001.93
2022-09-03T07:25:00.444Z,1001.86
2022-09-03T07:30:04.610Z,1001.85
2022-09-03T07:35:08.781Z,1001.82
2022-09-03T07:40:12.926Z,1001.93
2022-09-03T07:45:17.075Z,1001.94
2022-09-03T07:50:21.320Z,1001.98
2022-09-03T07:55:25.384Z,1002.05
2022-09-03T08:00:29.589Z,1002.04
2022-09-03T08:05:33.714Z,1002.02
2022-09-03T08:10:37.864Z,1002.02
2022-09-03T08:15:42.051Z,1002.13
2022-09-03T08:20:46.202Z,1002.16
2022-09-03T08:25:50.376Z,1002.15
2022-09-03T08:30:54.540Z,1002.09
2022-09-03T08:35:58.671Z,1002.11
2022-09-03T08:41:00.946Z,1002.07
2022-09-03T08:46:05.125Z,1002.07
2022-09-03T08:51:07.371Z,1002.04
2022-09-03T08:56:11.550Z,1002.08
2022-09-03T09:01:13.813Z,1001.99
2022-09-03T09:06:17.963Z,1001.95
2022-09-03T09:11:20.221Z,1001.99
2022-09-03T09:16:24.441Z,1001.98
2022-09-03T09:21:28.584Z,1001.96
2022-09-03T09:26:32.681Z,1001.89
2022-09-03T09:31:36.919Z,1001.88
2022-09-03T09:36:41.001Z,1001.84
2022-09-03T09:41:45.196Z,1001.88
2022-09-03T09:46:52.769Z,1001.86
2022-09-03T09:51:53.512Z,1001.90
2022-09-03T10:02:01.906Z,1001.84
2022-09-03T10:07:05.955Z,1001.76
2022-09-03T10:12:10.185Z,1001.78
2022-09-03T10:17:14.314Z,1001.85
2022-09-03T10:22:18.459Z,1001.80
2022-09-03T10:27:22.604Z,1001.85
2022-09-03T10:32:27.422Z,1001.82
2022-09-03T10:37:30.954Z,1001.88
2022-09-03T10:42:35.090Z,1001.95
2022-09-03T10:47:39.254Z,1001.92
2022-09-03T10:52:43.425Z,1001.84
2022-09-03T10:57:47.565Z,1001.79
2022-09-03T11:02:49.895Z,1001.91
2022-09-03T11:07:54.031Z,1001.87
2022-09-03T11:12:56.251Z,1001.83
2022-09-03T11:18:00.420Z,1001.73
2022-09-03T11:23:04.590Z,1001.80
2022-09-03T11:28:08.707Z,1001.77
2022-09-03T11:33:12.908Z,1001.74
2022-09-03T11:38:17.071Z,1001.65
2022-09-03T11:43:21.234Z,1001.65
2022-09-03T11:53:29.523Z,1001.70
2022-09-03T11:58:33.663Z,1001.75
2022-09-03T12:03:37.877Z,1001.75
2022-09-03T12:08:42.022Z,1001.82
2022-09-03T12:13:48.191Z,1001.86
2022-09-03T12:18:50.315Z,1001.91
2022-09-03T12:23:58.037Z,1001.90
2022-09-03T12:28:58.621Z,1001.88
2022-09-03T12:34:02.816Z,1001.88
2022-09-03T12:39:12.052Z,1001.83
2022-09-03T12:44:11.126Z,1001.75
2022-09-03T12:49:31.134Z,1001.70
2022-09-03T12:54:19.424Z,1001.77
2022-09-03T12:59:23.573Z,1001.79
2022-09-03T13:04:25.853Z,1001.77
2022-09-03T13:09:30.008Z,1001.61
2022-09-03T13:14:32.303Z,1001.56
2022-09-03T13:19:36.570Z,1001.54
2022-09-03T13:24:38.732Z,1001.57
2022-09-03T13:29:42.878Z,1001.53
2022-09-03T13:34:47.040Z,1001.50
2022-09-03T13:39:51.260Z,1001.44
2022-09-03T13:44:55.340Z,1001.41
2022-09-03T13:49:59.743Z,1001.35
2022-09-03T13:55:03.663Z,1001.38
2022-09-03T14:00:07.819Z,1001.40
2022-09-03T14:05:12.017Z,1001.33
2022-09-03T14:10:16.137Z,1001.32
2022-09-03T14:15:20.287Z,1001.38
2022-09-03T14:20:24.462Z,1001.37
2022-09-03T14:25:28.634Z,1001.46
2022-09-03T14:30:32.782Z,1001.43
2022-09-03T14:35:36.952Z,1001.56
2022-09-03T14:40:41.106Z,1001.48
2022-09-03T14:45:45.343Z,1001.37
2022-09-03T14:50:49.388Z,1001.53
2022-09-03T14:55:53.574Z,1001.46
2022-09-03T15:00:57.762Z,1001.43
2022-09-03T15:06:01.885Z,1001.51
2022-09-03T15:11:04.163Z,1001.53
2022-09-03T15:16:08.395Z,1001.48
2022-09-03T15:21:12.490Z,1001.51
2022-09-03T15:26:18.725Z,1001.43
2022-09-03T15:31:20.874Z,1001.45
2022-09-03T15:36:24.947Z,1001.40
2022-09-03T15:41:29.148Z,1001.42
2022-09-03T15:46:33.291Z,1001.52
2022-09-03T15:51:37.433Z,1001.46
2022-09-03T15:56:42.115Z,1001.51
2022-09-03T16:01:45.931Z,1001.47
2022-09-03T16:06:49.903Z,1001.47
2022-09-03T16:11:54.051Z,1001.49
2022-09-03T16:16:58.247Z,1001.58
2022-09-03T16:22:02.398Z,1001.58
2022-09-03T16:27:06.554Z,1001.48
2022-09-03T16:32:10.688Z,1001.60
2022-09-03T16:37:14.866Z,1001.71
2022-09-03T16:42:19.022Z,1001.69
2022-09-03T16:47:23.199Z,1001.78
2022-09-03T16:52:38.209Z,1001.77
2022-09-03T16:57:29.607Z,1001.76
2022-09-03T17:02:41.343Z,1001.76
2022-09-03T17:07:36.011Z,1001.80
2022-09-03T17:12:40.189Z,1001.97
2022-09-03T17:17:44.376Z,1001.92
2022-09-03T17:22:48.508Z,1001.94
2022-09-03T17:27:52.684Z,1002.01
2022-09-03T17:32:57.199Z,1002.08
2022-09-03T17:38:01.002Z,1002.12
2022-09-03T17:43:05.146Z,1002.10
2022-09-03T17:48:09.312Z,1002.13
2022-09-03T17:53:13.483Z,1002.16
2022-09-03T17:58:17.651Z,1002.15
2022-09-03T18:03:21.809Z,1002.23
2022-09-03T18:08:25.955Z,1002.24
2022-09-03T18:13:30.098Z,1002.35
2022-09-03T18:18:34.335Z,1002.44
2022-09-03T18:23:38.438Z,1002.45
2022-09-03T18:28:42.576Z,1002.52
2022-09-03T18:33:46.741Z,1002.66
2022-09-03T18:38:50.912Z,1002.71
2022-09-03T18:43:55.079Z,1002.85
2022-09-03T18:48:59.306Z,1002.95
2022-09-03T18:54:01.499Z,1002.95
2022-09-03T18:59:05.679Z,1002.92
2022-09-03T19:04:14.193Z,1002.94
2022-09-03T19:09:12.538Z,1003.01
2022-09-03T19:14:16.242Z,1003.01
2022-09-03T19:19:24.406Z,1003.10
2022-09-03T19:24:24.536Z,1003.17
2022-09-03T19:29:28.731Z,1003.14
2022-09-03T19:34:32.861Z,1003.23
2022-09-03T19:39:37.105Z,1003.36
2022-09-03T19:44:41.188Z,1003.40
2022-09-03T19:49:48.377Z,1003.50
2022-09-03T19:54:47.621Z,1003.54
2022-09-03T19:59:51.803Z,1003.57
2022-09-03T20:04:57.245Z,1003.56
2022-09-03T20:10:00.096Z,1003.63
2022-09-03T20:15:04.287Z,1003.62
2022-09-03T20:20:08.404Z,1003.64
2022-09-03T20:25:12.590Z,1003.65
2022-09-03T20:30:16.759Z,1003.69
2022-09-03T20:35:20.907Z,1003.65
2022-09-03T20:40:25.754Z,1003.75
2022-09-03T20:45:29.230Z,1003.74
2022-09-03T20:50:31.490Z,1003.73
2022-09-03T20:55:35.645Z,1003.84
2022-09-03T21:00:38.139Z,1003.83
2022-09-03T21:05:42.106Z,1003.84
2022-09-03T21:10:44.331Z,1003.88
2022-09-03T21:15:50.316Z,1003.92
2022-09-03T21:20:53.172Z,1003.95
2022-09-03T21:25:56.844Z,1003.86
2022-09-03T21:31:01.140Z,1003.91
2022-09-03T21:36:05.150Z,1003.96
2022-09-03T21:41:09.293Z,1003.90
2022-09-03T21:46:13.542Z,1003.81
2022-09-03T21:51:17.640Z,1003.81
2022-09-03T21:56:21.779Z,1003.80
2022-09-03T22:01:26.017Z,1003.90
2022-09-03T22:06:30.107Z,1003.86
2022-09-03T22:11:34.253Z,1003.90
2022-09-03T22:16:38.551Z,1003.87
2022-09-03T22:21:42.596Z,1003.94
2022-09-03T22:26:46.756Z,1004.02
2022-09-03T22:31:50.929Z,1003.91
2022-09-03T22:36:55.070Z,1003.93
2022-09-03T22:41:59.229Z,1003.91
2022-09-03T22:47:03.381Z,1004.02
2022-09-03T22:52:07.522Z,1004.01
2022-09-03T22:57:09.819Z,1004.13
2022-09-03T23:02:13.991Z,1004.10
2022-09-03T23:07:16.261Z,1004.18
2022-09-03T23:12:20.394Z,1004.23
2022-09-03T23:17:24.554Z,1004.27
2022-09-03T23:22:28.765Z,1004.21
2022-09-03T23:27:32.867Z,1004.29
2022-09-03T23:32:37.037Z,1004.31
2022-09-03T23:37:41.181Z,1004.38
2022-09-03T23:42:45.338Z,1004.47
2022-09-03T23:47:49.515Z,1004.53
2022-09-03T23:52:53.715Z,1004.48
2022-09-03T23:57:57.850Z,1004.45
